Time;durP1;ratioP1;P1;durP2;ratioP2;P2;SDS_P1;SDS_P2;PMS_P1;PMS_P2;Temp;Humidity;BMP_temperature;BMP_pressure;BME280_temperature;BME280_humidity;BME280_pressure;Samples;Min_cycle;Max_cycle;Signal;HPM_P1;HPM_P2
2021/10/07 00:01:57;;;;;;;1.17;1.08;;;11.40;99.90;;;;;;5051551;27;20438;-66
2021/10/07 00:04:23;;;;;;;0.90;0.90;;;11.50;99.90;;;;;;5051150;28;20188;-66
2021/10/07 00:06:48;;;;;;;0.80;0.80;;;11.40;99.90;;;;;;5050947;28;20173;-66
2021/10/07 00:09:14;;;;;;;2.10;1.03;;;11.40;99.90;;;;;;5051266;28;20192;-66
2021/10/07 00:11:42;;;;;;;1.00;0.90;;;11.50;99.90;;;;;;5051007;28;20539;-66
2021/10/07 00:14:08;;;;;;;1.13;1.05;;;11.50;99.90;;;;;;5051129;28;20982;-66
2021/10/07 00:16:34;;;;;;;0.85;0.85;;;11.50;99.90;;;;;;5051245;28;20189;-67
2021/10/07 00:19:00;;;;;;;5.40;1.40;;;11.40;99.90;;;;;;5050842;28;20193;-65
2021/10/07 00:21:25;;;;;;;1.03;1.00;;;11.50;99.90;;;;;;5051222;27;20505;-66
2021/10/07 00:26:17;;;;;;;1.73;1.10;;;11.40;99.90;;;;;;5050667;28;20165;-66
2021/10/07 00:28:43;;;;;;;0.70;0.70;;;11.40;99.90;;;;;;5050410;27;20567;-65
2021/10/07 00:31:15;;;;;;;1.53;1.43;;;11.40;99.90;;;;;;5051065;27;20189;-65
2021/10/07 00:34:53;;;;;;;0.95;0.95;;;11.40;99.90;;;;;;5050697;28;20620;-66
2021/10/07 00:36:42;;;;;;;0.60;0.60;;;11.30;99.90;;;;;;5063456;27;20193;-66
2021/10/07 00:39:08;;;;;;;0.95;0.90;;;11.30;99.90;;;;;;5050544;28;20694;-66
2021/10/07 00:41:38;;;;;;;1.10;0.90;;;11.30;99.90;;;;;;5050612;27;20240;-66
2021/10/07 00:44:09;;;;;;;1.27;1.25;;;11.30;99.90;;;;;;5050878;28;20326;-66
2021/10/07 00:46:54;;;;;;;1.98;1.83;;;11.30;99.90;;;;;;5050343;28;20166;-66
2021/10/07 00:49:22;;;;;;;0.95;0.88;;;11.30;99.90;;;;;;5049261;28;20201;-66
2021/10/07 00:51:48;;;;;;;1.50;1.42;;;11.30;99.90;;;;;;5050720;28;20169;-66
2021/10/07 00:54:16;;;;;;;0.60;0.60;;;11.30;99.90;;;;;;5050626;28;20191;-65
2021/10/07 00:56:43;;;;;;;1.20;0.80;;;11.20;99.90;;;;;;5049026;28;20175;-66
2021/10/07 00:59:10;;;;;;;1.13;1.02;;;11.20;99.90;;;;;;5050517;28;20190;-66
2021/10/07 01:01:35;;;;;;;1.35;1.35;;;11.20;99.90;;;;;;5050301;28;20206;-66
2021/10/07 01:04:01;;;;;;;1.00;1.00;;;11.20;99.90;;;;;;5050397;28;20185;-65
2021/10/07 01:06:27;;;;;;;1.03;1.03;;;11.30;99.90;;;;;;5050858;28;20386;-65
2021/10/07 01:08:53;;;;;;;2.07;1.43;;;11.30;99.90;;;;;;5050028;28;20214;-66
2021/10/07 01:11:18;;;;;;;0.80;0.80;;;11.30;99.90;;;;;;5050469;28;20599;-66
2021/10/07 01:13:44;;;;;;;1.43;1.33;;;11.40;99.90;;;;;;5049124;28;20197;-66
2021/10/07 01:16:10;;;;;;;1.27;0.90;;;11.30;99.90;;;;;;5049943;27;20177;-66
2021/10/07 01:18:35;;;;;;;1.00;0.67;;;11.30;99.90;;;;;;5049786;27;20647;-66
2021/10/07 01:21:03;;;;;;;1.47;1.37;;;11.30;99.90;;;;;;5050171;27;20528;-66
2021/10/07 01:23:28;;;;;;;1.92;1.13;;;11.30;99.90;;;;;;5050361;27;20188;-66
2021/10/07 01:25:54;;;;;;;1.33;1.23;;;11.30;99.90;;;;;;5050161;27;20245;-66
2021/10/07 01:28:20;;;;;;;0.73;0.73;;;11.30;99.90;;;;;;5049993;27;20177;-66
2021/10/07 01:30:46;;;;;;;1.20;1.10;;;11.30;99.90;;;;;;5049925;28;20545;-66
2021/10/07 01:33:12;;;;;;;0.77;0.77;;;11.30;99.90;;;;;;5050018;27;20185;-66
2021/10/07 01:35:37;;;;;;;1.33;1.23;;;11.30;99.90;;;;;;5050139;28;20173;-65
2021/10/07 01:38:04;;;;;;;1.17;1.17;;;11.30;99.90;;;;;;5049524;27;20192;-66
2021/10/07 01:40:30;;;;;;;0.95;0.95;;;11.20;99.90;;;;;;5049655;27;20197;-66
2021/10/07 01:42:56;;;;;;;1.63;1.52;;;11.20;99.90;;;;;;5049813;28;20694;-66
2021/10/07 01:45:22;;;;;;;1.00;1.00;;;11.20;99.90;;;;;;5050082;28;20256;-66
2021/10/07 01:47:48;;;;;;;1.13;0.93;;;11.20;99.90;;;;;;5049492;28;20712;-66
2021/10/07 01:50:15;;;;;;;1.20;1.20;;;11.10;99.90;;;;;;5050019;28;20197;-66
2021/10/07 01:52:42;;;;;;;1.38;1.27;;;11.10;99.90;;;;;;5049758;28;20178;-65
2021/10/07 01:55:10;;;;;;;1.75;1.27;;;11.10;99.90;;;;;;5049868;28;20505;-65
2021/10/07 01:57:37;;;;;;;2.63;1.27;;;11.10;99.90;;;;;;5049452;28;20273;-66
2021/10/07 02:00:05;;;;;;;2.15;1.25;;;11.10;99.90;;;;;;5049456;28;20220;-65
2021/10/07 02:02:31;;;;;;;2.60;1.33;;;11.10;99.90;;;;;;5049681;28;20201;-66
2021/10/07 02:04:56;;;;;;;1.37;1.27;;;11.10;99.90;;;;;;5049679;27;20609;-66
2021/10/07 02:07:25;;;;;;;1.73;1.63;;;11.10;99.90;;;;;;5049717;28;20165;-66
2021/10/07 02:09:50;;;;;;;1.83;1.73;;;11.10;99.90;;;;;;5053131;27;20293;-65
2021/10/07 02:12:16;;;;;;;1.20;1.10;;;11.20;99.90;;;;;;5053018;27;20246;-66
2021/10/07 02:14:42;;;;;;;1.10;1.00;;;11.20;99.90;;;;;;5052889;27;20169;-67
2021/10/07 02:17:07;;;;;;;0.97;0.97;;;11.20;99.90;;;;;;5052773;27;20539;-67
2021/10/07 02:19:33;;;;;;;1.00;0.90;;;11.20;99.90;;;;;;5053048;27;20261;-66
2021/10/07 02:21:59;;;;;;;1.13;1.13;;;11.10;99.90;;;;;;5053112;27;20198;-67
2021/10/07 02:24:25;;;;;;;1.98;0.90;;;11.10;99.90;;;;;;5053371;27;20566;-66
2021/10/07 02:26:51;;;;;;;1.85;1.10;;;11.20;99.90;;;;;;5052437;27;20170;-66
2021/10/07 02:29:17;;;;;;;0.80;0.80;;;11.20;99.90;;;;;;5052422;27;20190;-66
2021/10/07 02:31:43;;;;;;;2.37;1.47;;;11.20;99.90;;;;;;5053105;27;20287;-66
2021/10/07 02:34:08;;;;;;;3.43;1.50;;;11.20;99.90;;;;;;5052503;28;20257;-66
2021/10/07 02:36:34;;;;;;;1.67;1.50;;;11.20;99.90;;;;;;5052400;28;20188;-66
2021/10/07 02:39:00;;;;;;;0.80;0.80;;;11.10;99.90;;;;;;5052662;28;20237;-65
2021/10/07 02:41:26;;;;;;;1.30;1.20;;;11.20;99.90;;;;;;5052577;28;20212;-66
2021/10/07 02:43:52;;;;;;;1.67;1.58;;;11.20;99.90;;;;;;5052244;28;20231;-66
2021/10/07 02:46:18;;;;;;;0.80;0.80;;;11.20;99.90;;;;;;5052483;28;20178;-66
2021/10/07 02:48:44;;;;;;;0.90;0.90;;;11.20;99.90;;;;;;5051994;27;20666;-66
2021/10/07 02:51:10;;;;;;;1.08;1.05;;;11.20;99.90;;;;;;5052591;28;20557;-66
2021/10/07 02:53:37;;;;;;;1.30;1.20;;;11.30;99.90;;;;;;5052509;28;20224;-66
2021/10/07 02:56:04;;;;;;;1.63;1.52;;;11.20;99.90;;;;;;5052444;27;20420;-66
2021/10/07 02:58:30;;;;;;;1.25;1.25;;;11.30;99.90;;;;;;5051709;28;20531;-66
2021/10/07 03:00:56;;;;;;;1.27;1.23;;;11.30;99.90;;;;;;5052150;28;20158;-66
2021/10/07 03:03:22;;;;;;;1.60;1.50;;;11.20;99.90;;;;;;5052277;28;20600;-66
2021/10/07 03:05:48;;;;;;;1.03;0.90;;;11.30;99.90;;;;;;5051130;27;20170;-66
2021/10/07 03:08:13;;;;;;;1.30;1.20;;;11.30;99.90;;;;;;5051559;28;20166;-66
2021/10/07 03:10:39;;;;;;;1.30;1.20;;;11.30;99.90;;;;;;5051936;27;20238;-66
2021/10/07 03:13:05;;;;;;;5.70;1.80;;;11.30;99.90;;;;;;5052244;27;20170;-66
2021/10/07 03:15:30;;;;;;;2.10;1.33;;;11.30;99.90;;;;;;5051914;27;20719;-65
2021/10/07 03:17:56;;;;;;;1.13;1.13;;;11.20;99.90;;;;;;5051647;27;20703;-66
2021/10/07 03:20:21;;;;;;;1.33;0.90;;;11.20;99.90;;;;;;5051458;27;20185;-65
2021/10/07 03:22:47;;;;;;;0.90;0.90;;;11.20;99.90;;;;;;5051919;27;20200;-66
2021/10/07 03:25:13;;;;;;;1.50;1.40;;;11.20;99.90;;;;;;5052170;27;20229;-66
2021/10/07 03:27:39;;;;;;;1.17;1.17;;;11.20;99.90;;;;;;5051524;27;20181;-66
2021/10/07 03:30:06;;;;;;;2.60;1.67;;;11.20;99.90;;;;;;5051464;28;20186;-66
2021/10/07 03:32:32;;;;;;;0.80;0.80;;;11.20;99.90;;;;;;5051755;28;20314;-66
2021/10/07 03:34:58;;;;;;;2.03;1.20;;;11.20;99.90;;;;;;5051654;28;20210;-66
2021/10/07 03:37:23;;;;;;;1.60;1.43;;;11.20;99.90;;;;;;5051630;27;20170;-65
2021/10/07 03:39:49;;;;;;;2.80;1.70;;;11.20;99.90;;;;;;5051524;27;20584;-66
2021/10/07 03:42:15;;;;;;;1.17;1.17;;;11.30;99.90;;;;;;5051733;27;20722;-65
2021/10/07 03:44:41;;;;;;;1.77;1.67;;;11.30;99.90;;;;;;5051494;27;20172;-66
2021/10/07 03:47:07;;;;;;;2.15;2.05;;;11.30;99.90;;;;;;5051177;28;20165;-66
2021/10/07 03:49:33;;;;;;;2.47;2.28;;;11.30;99.90;;;;;;5051487;28;20178;-66
2021/10/07 03:51:59;;;;;;;1.10;1.10;;;11.20;99.90;;;;;;5050360;27;20177;-65
2021/10/07 03:54:24;;;;;;;1.77;1.67;;;11.20;99.90;;;;;;5050282;28;20491;-65
2021/10/07 03:56:50;;;;;;;1.53;1.43;;;11.20;99.90;;;;;;5051143;28;20178;-66
2021/10/07 03:59:16;;;;;;;1.27;1.17;;;11.20;99.90;;;;;;5051232;27;20201;-66
2021/10/07 04:01:41;;;;;;;2.03;1.60;;;11.20;99.90;;;;;;5051320;27;20208;-67
2021/10/07 04:04:07;;;;;;;1.97;1.87;;;11.20;99.90;;;;;;5051269;28;20624;-66
2021/10/07 04:06:33;;;;;;;1.50;1.40;;;11.20;99.90;;;;;;5050882;28;20225;-66
2021/10/07 04:08:58;;;;;;;1.57;1.47;;;11.20;99.90;;;;;;5051448;27;20185;-65
2021/10/07 04:11:24;;;;;;;1.87;1.77;;;11.30;99.90;;;;;;5051099;28;20532;-66
2021/10/07 04:13:49;;;;;;;1.70;1.60;;;11.20;99.90;;;;;;5051092;28;20177;-66
2021/10/07 04:16:15;;;;;;;1.20;1.10;;;11.30;99.90;;;;;;5049780;27;20181;-66
2021/10/07 04:18:43;;;;;;;2.60;1.40;;;11.30;99.90;;;;;;5050592;28;20219;-66
2021/10/07 04:21:09;;;;;;;2.90;1.77;;;11.30;99.90;;;;;;5051145;28;20578;-65
2021/10/07 04:23:34;;;;;;;3.03;2.70;;;11.30;99.90;;;;;;5050991;28;20177;-65
2021/10/07 04:26:00;;;;;;;2.30;2.10;;;11.30;99.90;;;;;;5051104;28;20387;-65
2021/10/07 04:28:26;;;;;;;1.70;1.60;;;11.30;99.90;;;;;;5050314;28;20666;-65
2021/10/07 04:30:51;;;;;;;2.13;1.60;;;11.30;99.90;;;;;;5049833;28;20216;-65
2021/10/07 04:33:17;;;;;;;1.40;1.30;;;11.20;99.90;;;;;;5050942;28;20177;-65
2021/10/07 04:35:42;;;;;;;1.70;1.60;;;11.20;99.90;;;;;;5050936;28;20205;-65
2021/10/07 04:38:09;;;;;;;1.30;1.10;;;11.20;99.90;;;;;;5050196;28;20189;-66
2021/10/07 04:40:36;;;;;;;1.60;1.50;;;11.20;99.90;;;;;;5049216;28;20193;-66
2021/10/07 04:43:03;;;;;;;1.13;1.05;;;11.20;99.90;;;;;;5050518;28;20189;-65
2021/10/07 04:45:28;;;;;;;1.67;1.58;;;11.20;99.90;;;;;;5050432;28;20213;-66
2021/10/07 04:47:55;;;;;;;1.60;1.50;;;11.10;99.90;;;;;;5050601;28;20608;-66
2021/10/07 04:50:20;;;;;;;1.90;1.80;;;11.10;99.90;;;;;;5050589;28;20270;-65
2021/10/07 04:52:46;;;;;;;4.73;1.80;;;11.10;99.90;;;;;;5050680;28;20191;-66
2021/10/07 04:55:12;;;;;;;1.40;1.30;;;11.10;99.90;;;;;;5050317;28;20214;-66
2021/10/07 04:57:38;;;;;;;3.65;1.77;;;11.10;99.90;;;;;;5050461;28;20790;-66
2021/10/07 05:00:06;;;;;;;1.80;1.70;;;11.10;99.90;;;;;;5049928;28;20284;-65
2021/10/07 05:02:34;;;;;;;1.95;1.85;;;11.10;99.90;;;;;;5050223;28;20209;-68
2021/10/07 05:05:00;;;;;;;3.13;1.73;;;11.10;99.90;;;;;;5048892;28;20241;-66
2021/10/07 05:07:28;;;;;;;1.40;1.40;;;11.10;99.90;;;;;;5049188;27;20170;-66
2021/10/07 05:09:54;;;;;;;1.20;1.10;;;11.10;99.90;;;;;;5050200;27;20272;-64
2021/10/07 05:12:19;;;;;;;1.63;1.40;;;11.10;99.90;;;;;;5050904;27;20272;-65
2021/10/07 05:14:45;;;;;;;3.33;2.10;;;11.10;99.90;;;;;;5050139;27;20586;-66
2021/10/07 05:17:10;;;;;;;1.90;1.80;;;11.10;99.90;;;;;;5049769;27;20264;-66
2021/10/07 05:19:39;;;;;;;2.30;1.87;;;11.10;99.90;;;;;;5049916;27;20193;-67
2021/10/07 05:22:04;;;;;;;7.43;2.55;;;11.10;99.90;;;;;;5047771;28;20308;-66
2021/10/07 05:24:30;;;;;;;1.47;1.37;;;11.10;99.90;;;;;;5048033;28;20619;-67
2021/10/07 05:26:56;;;;;;;2.20;2.10;;;11.10;99.90;;;;;;5047742;28;20165;-66
2021/10/07 05:29:22;;;;;;;2.00;1.90;;;11.10;99.90;;;;;;5047941;28;20531;-66
2021/10/07 05:31:49;;;;;;;1.63;1.52;;;11.10;99.90;;;;;;5047988;28;20450;-66
2021/10/07 05:34:15;;;;;;;1.90;1.80;;;11.10;99.90;;;;;;5047834;28;20190;-66
2021/10/07 05:36:41;;;;;;;2.53;1.67;;;11.20;99.90;;;;;;5048624;28;20173;-66
2021/10/07 05:39:07;;;;;;;1.63;1.48;;;11.20;99.90;;;;;;5049398;28;20484;-66
2021/10/07 05:41:33;;;;;;;1.53;1.30;;;11.20;99.90;;;;;;5049803;28;20655;-66
2021/10/07 05:43:59;;;;;;;1.83;1.73;;;11.20;99.90;;;;;;5053298;28;20404;-67
2021/10/07 05:46:24;;;;;;;1.70;1.60;;;11.30;99.90;;;;;;5053230;28;20650;-65
2021/10/07 05:48:50;;;;;;;4.10;1.40;;;11.20;99.90;;;;;;5052966;28;20191;-65
2021/10/07 05:51:16;;;;;;;1.80;1.70;;;11.30;99.90;;;;;;5053379;28;20383;-65
2021/10/07 05:53:41;;;;;;;1.47;1.43;;;11.30;99.90;;;;;;5052863;28;20182;-66
2021/10/07 05:56:07;;;;;;;5.23;1.67;;;11.30;99.90;;;;;;5053377;28;20173;-66
2021/10/07 05:58:33;;;;;;;2.30;1.63;;;11.30;99.90;;;;;;5053075;27;20658;-65
2021/10/07 06:00:59;;;;;;;1.40;1.30;;;11.30;99.90;;;;;;5051722;28;20168;-66
2021/10/07 06:03:25;;;;;;;2.00;1.90;;;11.30;99.90;;;;;;5053003;28;20196;-65
2021/10/07 06:05:50;;;;;;;1.83;1.73;;;11.30;99.90;;;;;;5053076;28;20215;-64
2021/10/07 06:08:16;;;;;;;2.77;2.53;;;11.30;99.90;;;;;;5052164;28;20684;-66
2021/10/07 06:10:41;;;;;;;1.20;1.20;;;11.30;99.90;;;;;;5052879;27;20189;-65
2021/10/07 06:13:07;;;;;;;2.03;1.93;;;11.30;99.90;;;;;;5051637;27;20215;-66
2021/10/07 06:15:33;;;;;;;2.00;1.90;;;11.40;99.90;;;;;;5052775;27;20209;-68
2021/10/07 06:17:59;;;;;;;1.83;1.40;;;11.30;99.90;;;;;;5051230;27;20201;-66
2021/10/07 06:22:53;;;;;;;1.98;1.85;;;11.40;99.90;;;;;;5052769;28;20540;-65
2021/10/07 06:25:20;;;;;;;1.60;1.50;;;11.40;99.90;;;;;;5053252;27;20182;-65
2021/10/07 06:27:47;;;;;;;1.98;1.80;;;11.40;99.90;;;;;;5051562;28;20421;-65
2021/10/07 06:30:13;;;;;;;1.58;1.48;;;11.50;99.90;;;;;;5052572;28;20268;-64
2021/10/07 06:32:39;;;;;;;2.45;2.25;;;11.50;99.90;;;;;;5052599;28;20174;-67
2021/10/07 06:35:05;;;;;;;2.93;1.77;;;11.60;99.90;;;;;;5052348;28;20562;-65
2021/10/07 06:37:31;;;;;;;1.83;1.67;;;11.70;99.90;;;;;;5052047;28;20201;-65
2021/10/07 06:39:57;;;;;;;1.33;1.33;;;11.70;99.90;;;;;;5052531;28;20751;-65
2021/10/07 06:42:22;;;;;;;1.43;1.43;;;11.80;99.90;;;;;;5051429;27;20237;-66
2021/10/07 06:44:48;;;;;;;3.00;2.80;;;11.80;99.90;;;;;;5052299;28;20172;-66
2021/10/07 06:47:13;;;;;;;1.63;1.53;;;11.90;99.90;;;;;;5052145;28;20178;-69
2021/10/07 06:49:40;;;;;;;4.10;2.07;;;11.90;99.90;;;;;;5052016;28;20185;-68
2021/10/07 06:52:06;;;;;;;1.95;1.85;;;12.00;99.90;;;;;;5052802;28;20174;-70
2021/10/07 06:54:32;;;;;;;4.20;1.77;;;12.00;99.90;;;;;;5051298;28;20202;-73
2021/10/07 06:56:57;;;;;;;1.60;1.50;;;12.10;99.90;;;;;;5052338;28;20653;-69
2021/10/07 06:59:23;;;;;;;1.90;1.80;;;12.20;99.90;;;;;;5052587;27;20255;-68
2021/10/07 07:01:49;;;;;;;2.93;1.87;;;12.20;99.90;;;;;;5052275;28;20216;-68
2021/10/07 07:04:16;;;;;;;9.73;1.80;;;12.30;99.90;;;;;;5051995;27;20421;-68
2021/10/07 07:06:43;;;;;;;1.80;1.70;;;12.30;99.90;;;;;;5052211;28;20212;-74
2021/10/07 07:09:10;;;;;;;1.67;1.30;;;12.40;99.90;;;;;;5052375;27;20479;-73
2021/10/07 07:11:36;;;;;;;2.38;2.17;;;12.40;99.90;;;;;;5052613;28;20409;-73
2021/10/07 07:14:05;;;;;;;2.43;2.20;;;12.40;99.90;;;;;;5050616;28;20177;-71
2021/10/07 07:16:32;;;;;;;1.30;1.20;;;12.50;99.90;;;;;;5050971;28;20466;-69
2021/10/07 07:18:59;;;;;;;2.43;2.23;;;12.50;99.90;;;;;;5049878;28;20419;-66
2021/10/07 07:21:28;;;;;;;2.43;1.70;;;12.60;99.90;;;;;;5050347;28;20752;-67
2021/10/07 07:23:54;;;;;;;2.20;2.00;;;12.60;99.90;;;;;;5051897;28;20396;-68
2021/10/07 07:26:21;;;;;;;2.70;1.90;;;12.70;99.90;;;;;;5050692;28;20393;-65
2021/10/07 07:28:47;;;;;;;2.80;1.73;;;12.70;99.90;;;;;;5051435;28;20278;-67
2021/10/07 07:31:12;;;;;;;1.30;1.27;;;12.80;99.90;;;;;;5052168;27;20417;-67
2021/10/07 07:33:38;;;;;;;2.43;2.33;;;12.90;99.90;;;;;;5051612;28;20175;-67
2021/10/07 07:36:04;;;;;;;2.20;2.00;;;12.90;99.90;;;;;;5051479;27;20239;-66
2021/10/07 07:38:29;;;;;;;3.00;2.23;;;13.00;99.90;;;;;;5051270;28;20191;-66
2021/10/07 07:40:57;;;;;;;4.07;2.40;;;12.90;99.90;;;;;;5050403;28;20197;-67
2021/10/07 07:43:22;;;;;;;2.00;1.83;;;13.00;99.90;;;;;;5051547;28;20215;-66
2021/10/07 07:45:50;;;;;;;2.27;1.80;;;13.10;99.90;;;;;;5050428;27;20805;-66
2021/10/07 07:48:16;;;;;;;4.47;3.63;;;13.10;99.90;;;;;;5051144;28;20216;-67
2021/10/07 07:50:42;;;;;;;5.30;3.27;;;13.20;99.90;;;;;;5049809;28;20426;-67
2021/10/07 07:53:08;;;;;;;1.90;1.80;;;13.30;99.90;;;;;;5051215;27;20402;-67
2021/10/07 07:55:34;;;;;;;3.87;3.27;;;13.30;99.90;;;;;;5051474;27;20418;-67
2021/10/07 07:57:59;;;;;;;2.43;2.23;;;13.40;99.90;;;;;;5051011;28;20390;-67
2021/10/07 08:00:25;;;;;;;11.10;4.80;;;13.40;99.90;;;;;;5051255;27;20412;-66
2021/10/07 08:02:51;;;;;;;8.50;3.20;;;13.60;99.90;;;;;;5051256;27;20325;-66
2021/10/07 08:05:16;;;;;;;24.67;10.00;;;13.70;99.90;;;;;;5049436;27;20168;-66
2021/10/07 08:07:42;;;;;;;3.63;3.33;;;13.80;99.90;;;;;;5049314;27;20665;-66
2021/10/07 08:10:09;;;;;;;8.70;5.53;;;14.00;99.90;;;;;;5050906;28;20242;-66
2021/10/07 08:12:35;;;;;;;8.47;6.60;;;14.10;99.90;;;;;;5051388;27;20199;-67
2021/10/07 08:15:02;;;;;;;8.13;6.17;;;14.30;99.90;;;;;;5051276;27;20884;-66
2021/10/07 08:17:28;;;;;;;6.10;5.53;;;14.50;99.90;;;;;;5050802;27;20260;-67
2021/10/07 08:19:54;;;;;;;3.63;3.27;;;14.70;99.90;;;;;;5050894;27;20854;-67
2021/10/07 08:22:21;;;;;;;11.70;5.30;;;14.80;99.90;;;;;;5050736;27;20211;-66
2021/10/07 08:24:47;;;;;;;3.77;3.30;;;15.10;99.90;;;;;;5050884;27;20197;-68
2021/10/07 08:27:16;;;;;;;4.70;4.13;;;15.10;99.90;;;;;;5050829;27;20390;-68
2021/10/07 08:29:42;;;;;;;6.87;4.00;;;15.30;99.90;;;;;;5049849;28;20584;-65
2021/10/07 08:32:08;;;;;;;3.37;3.10;;;15.50;99.90;;;;;;5050580;27;20893;-66
2021/10/07 08:34:34;;;;;;;3.43;3.13;;;15.90;99.90;;;;;;5051037;27;20398;-66
2021/10/07 08:36:59;;;;;;;4.93;3.30;;;16.80;99.90;;;;;;5050053;27;20508;-67
2021/10/07 08:39:26;;;;;;;4.13;3.53;;;17.60;99.90;;;;;;5050533;28;20289;-67
2021/10/07 08:41:52;;;;;;;2.80;2.60;;;18.20;99.90;;;;;;5050430;28;20201;-67
2021/10/07 08:44:19;;;;;;;2.70;2.50;;;18.40;99.90;;;;;;5050306;28;20904;-66
2021/10/07 08:46:52;;;;;;;5.43;5.03;;;18.60;99.90;;;;;;5049992;27;20472;-67
2021/10/07 08:49:24;;;;;;;3.10;2.90;;;19.00;99.90;;;;;;5050151;28;20206;-66
2021/10/07 08:51:51;;;;;;;3.63;2.77;;;18.80;99.90;;;;;;5050488;28;20428;-67
2021/10/07 08:54:17;;;;;;;3.30;3.00;;;18.40;99.90;;;;;;5050385;28;20411;-66
2021/10/07 08:56:43;;;;;;;10.50;3.37;;;18.10;99.90;;;;;;5050219;28;20426;-66
2021/10/07 08:59:09;;;;;;;3.47;3.10;;;17.70;99.90;;;;;;5049972;28;20441;-66
2021/10/07 09:01:43;;;;;;;3.00;2.80;;;17.20;99.90;;;;;;5050208;28;20507;-66
2021/10/07 09:04:23;;;;;;;3.00;2.70;;;16.80;99.90;;;;;;5050714;28;20248;-66
2021/10/07 09:06:56;;;;;;;2.90;2.63;;;16.40;99.90;;;;;;5050223;28;20946;-66
2021/10/07 09:09:22;;;;;;;3.03;2.73;;;16.00;99.90;;;;;;5050178;28;20767;-66
2021/10/07 09:11:59;;;;;;;7.07;3.50;;;15.70;99.90;;;;;;5049975;28;20381;-67
2021/10/07 09:14:28;;;;;;;3.30;3.00;;;15.40;99.90;;;;;;5049730;28;20370;-67
2021/10/07 09:16:55;;;;;;;3.13;2.83;;;15.20;99.90;;;;;;5048953;28;20438;-67
2021/10/07 09:19:26;;;;;;;4.20;3.87;;;14.90;99.90;;;;;;5049963;28;20445;-67
2021/10/07 09:22:12;;;;;;;4.13;3.67;;;14.90;99.90;;;;;;5050040;28;20543;-66
2021/10/07 09:24:43;;;;;;;2.93;2.73;;;14.90;99.90;;;;;;5048693;28;20378;-68
2021/10/07 09:27:19;;;;;;;4.43;4.03;;;14.90;99.90;;;;;;5031336;28;20403;-66
2021/10/07 09:29:52;;;;;;;8.50;4.40;;;14.80;99.90;;;;;;5049816;28;20436;-67
2021/10/07 09:32:43;;;;;;;4.47;3.07;;;14.50;99.90;;;;;;5050139;28;20532;-67
2021/10/07 09:35:12;;;;;;;3.80;3.50;;;14.50;99.90;;;;;;5049768;27;20507;-68
2021/10/07 09:37:40;;;;;;;2.50;2.40;;;14.40;99.90;;;;;;5049336;28;20426;-66
2021/10/07 09:40:13;;;;;;;4.17;3.87;;;14.30;99.90;;;;;;5049766;27;20450;-65
2021/10/07 09:42:51;;;;;;;2.50;2.30;;;14.30;99.90;;;;;;5048544;27;20455;-66
2021/10/07 09:45:21;;;;;;;3.20;2.90;;;14.30;99.90;;;;;;5049896;27;20838;-65
2021/10/07 09:47:50;;;;;;;2.70;2.50;;;14.20;99.90;;;;;;5049546;27;20422;-66
2021/10/07 09:50:31;;;;;;;3.60;3.30;;;14.10;99.90;;;;;;5049790;27;20437;-67
2021/10/07 09:53:06;;;;;;;3.97;3.60;;;14.10;99.90;;;;;;5048638;27;20398;-67
2021/10/07 09:55:37;;;;;;;3.13;2.93;;;14.10;99.90;;;;;;5049353;28;20434;-67
2021/10/07 09:58:14;;;;;;;4.23;3.93;;;14.20;99.90;;;;;;5049400;28;20441;-66
2021/10/07 10:00:42;;;;;;;6.43;4.23;;;14.20;99.90;;;;;;5049776;28;20541;-67
2021/10/07 10:03:10;;;;;;;3.07;2.87;;;14.30;99.90;;;;;;5049366;28;20443;-66
2021/10/07 10:05:37;;;;;;;2.83;2.53;;;14.40;99.90;;;;;;5049533;28;20396;-66
2021/10/07 10:08:09;;;;;;;3.20;3.00;;;14.50;99.90;;;;;;5049003;28;20404;-66
2021/10/07 10:10:36;;;;;;;4.67;3.20;;;14.60;99.90;;;;;;5049413;28;20830;-66
2021/10/07 10:13:03;;;;;;;3.30;3.00;;;14.80;99.90;;;;;;5049847;28;20435;-67
2021/10/07 10:15:29;;;;;;;6.60;3.80;;;14.90;99.90;;;;;;5049490;28;20461;-66
2021/10/07 10:17:55;;;;;;;4.10;3.00;;;15.10;99.90;;;;;;5049093;28;20444;-66
2021/10/07 10:20:22;;;;;;;3.63;3.20;;;15.20;99.90;;;;;;5049123;28;20704;-67
2021/10/07 10:22:55;;;;;;;3.67;3.37;;;15.30;99.90;;;;;;5049204;28;20426;-66
2021/10/07 10:25:22;;;;;;;2.37;2.17;;;15.50;99.90;;;;;;5049250;28;20852;-67
2021/10/07 10:28:03;;;;;;;3.40;3.10;;;15.60;99.90;;;;;;5049454;28;20451;-67
2021/10/07 10:30:39;;;;;;;3.17;2.87;;;15.70;99.90;;;;;;5052578;28;20962;-66
2021/10/07 10:33:05;;;;;;;3.00;2.80;;;15.80;99.90;;;;;;5052703;27;20447;-67
2021/10/07 10:35:34;;;;;;;2.83;2.63;;;15.90;99.90;;;;;;5052471;28;20767;-66
2021/10/07 10:38:01;;;;;;;3.73;3.10;;;15.90;99.90;;;;;;5052079;28;20242;-66
2021/10/07 10:40:27;;;;;;;3.40;2.87;;;15.80;99.90;;;;;;5052578;28;20958;-67
2021/10/07 10:43:26;;;;;;;2.93;2.73;;;15.70;99.90;;;;;;5052381;27;20470;-67
2021/10/07 10:45:51;;;;;;;3.87;2.83;;;15.60;99.90;;;;;;5052539;28;20371;-67
2021/10/07 10:48:41;;;;;;;3.33;3.03;;;15.50;99.90;;;;;;5052061;28;20752;-67
2021/10/07 10:51:31;;;;;;;3.00;2.60;;;15.60;99.90;;;;;;5052310;28;20724;-67
2021/10/07 10:54:08;;;;;;;3.50;3.20;;;15.70;99.90;;;;;;5052368;28;20398;-68
2021/10/07 10:56:40;;;;;;;2.80;2.50;;;15.80;99.90;;;;;;5051790;28;20416;-66
2021/10/07 10:59:25;;;;;;;3.10;2.90;;;15.80;99.90;;;;;;5052435;28;20424;-66
2021/10/07 11:02:24;;;;;;;2.80;2.60;;;15.90;99.90;;;;;;5052024;28;20427;-66
2021/10/07 11:04:52;;;;;;;4.67;2.57;;;16.00;99.90;;;;;;5074199;28;20389;-66
2021/10/07 11:07:24;;;;;;;2.67;2.47;;;16.10;99.90;;;;;;5051691;28;20940;-66
2021/10/07 11:10:06;;;;;;;3.17;2.37;;;16.20;99.90;;;;;;5051529;28;20849;-66
2021/10/07 11:12:52;;;;;;;2.53;2.33;;;16.20;99.90;;;;;;5051032;28;20396;-66
2021/10/07 11:15:20;;;;;;;3.30;3.00;;;16.30;99.90;;;;;;5052126;28;20392;-66
2021/10/07 11:17:47;;;;;;;3.17;2.80;;;16.30;99.90;;;;;;5051409;28;20385;-67
2021/10/07 11:20:26;;;;;;;3.23;2.93;;;16.30;99.90;;;;;;5051498;28;20452;-67
2021/10/07 11:23:03;;;;;;;2.80;2.60;;;16.10;99.90;;;;;;5034055;28;20472;-67
2021/10/07 11:25:29;;;;;;;2.77;2.27;;;16.00;99.90;;;;;;5051776;27;20429;-66
2021/10/07 11:27:54;;;;;;;3.10;2.90;;;16.00;99.90;;;;;;5051355;28;20401;-67
2021/10/07 11:30:23;;;;;;;2.43;2.20;;;15.90;99.90;;;;;;5051815;28;20395;-66
2021/10/07 11:32:49;;;;;;;4.63;3.13;;;16.00;99.90;;;;;;5051735;28;20232;-66
2021/10/07 11:35:19;;;;;;;2.50;2.33;;;16.00;99.90;;;;;;5051369;28;20732;-66
2021/10/07 11:37:57;;;;;;;2.43;2.23;;;16.00;99.90;;;;;;5051288;28;20813;-67
2021/10/07 11:40:43;;;;;;;2.40;2.30;;;16.20;99.90;;;;;;5050646;28;20445;-66
2021/10/07 11:43:17;;;;;;;7.93;5.47;;;16.20;99.90;;;;;;5051549;28;20439;-67
2021/10/07 11:45:46;;;;;;;2.33;2.23;;;16.30;99.90;;;;;;5051218;28;20949;-67
2021/10/07 11:48:12;;;;;;;1.90;1.80;;;16.40;99.90;;;;;;5050621;28;20417;-66
2021/10/07 11:50:48;;;;;;;3.10;2.27;;;16.40;99.90;;;;;;5051379;28;20425;-67
2021/10/07 11:53:27;;;;;;;2.00;1.77;;;16.40;99.90;;;;;;5049368;28;20742;-67
2021/10/07 11:55:53;;;;;;;2.20;2.10;;;16.40;99.90;;;;;;5051474;28;20496;-67
2021/10/07 11:58:19;;;;;;;1.80;1.70;;;16.40;99.90;;;;;;5049254;28;20426;-66
2021/10/07 12:00:50;;;;;;;3.10;2.57;;;16.50;99.90;;;;;;5050942;28;20464;-68
2021/10/07 12:03:24;;;;;;;3.83;2.40;;;16.50;99.90;;;;;;5051383;28;20422;-66
2021/10/07 12:05:56;;;;;;;2.50;2.30;;;16.60;99.90;;;;;;5051496;28;20391;-67
2021/10/07 12:08:25;;;;;;;1.80;1.70;;;16.80;99.90;;;;;;5050635;28;20494;-67
2021/10/07 12:10:54;;;;;;;3.53;2.67;;;17.00;99.90;;;;;;5051080;28;20485;-67
2021/10/07 12:13:22;;;;;;;2.50;2.30;;;17.10;99.90;;;;;;5051054;28;20393;-67
2021/10/07 12:15:54;;;;;;;2.17;2.07;;;17.10;99.90;;;;;;5051085;27;20736;-65
2021/10/07 12:18:23;;;;;;;1.90;1.80;;;17.10;99.90;;;;;;5050736;28;20417;-65
2021/10/07 12:20:56;;;;;;;2.20;2.10;;;17.20;99.90;;;;;;5051026;28;20810;-65
2021/10/07 12:23:22;;;;;;;11.07;2.87;;;17.30;99.90;;;;;;5051037;28;20432;-66
2021/10/07 12:25:56;;;;;;;2.83;2.63;;;17.30;99.90;;;;;;5051009;28;20393;-64
2021/10/07 12:28:22;;;;;;;2.43;2.23;;;17.10;99.90;;;;;;5050197;27;20505;-65
2021/10/07 12:30:56;;;;;;;2.10;1.90;;;16.90;99.90;;;;;;5050852;27;20526;-65
2021/10/07 12:33:24;;;;;;;2.20;1.97;;;16.90;99.90;;;;;;5050733;28;20421;-65
2021/10/07 12:36:05;;;;;;;2.20;2.00;;;16.90;99.90;;;;;;5050570;28;20507;-66
2021/10/07 12:38:47;;;;;;;2.93;2.73;;;16.90;99.90;;;;;;5050349;28;20416;-66
2021/10/07 12:41:13;;;;;;;2.73;2.40;;;16.80;99.90;;;;;;5050934;28;20739;-68
2021/10/07 12:43:56;;;;;;;2.57;2.00;;;16.50;99.90;;;;;;5050285;28;20450;-67
2021/10/07 12:46:23;;;;;;;1.70;1.60;;;16.40;99.90;;;;;;5049526;28;20277;-68
2021/10/07 12:48:56;;;;;;;2.17;1.97;;;16.30;99.90;;;;;;5049909;27;20410;-68
2021/10/07 12:51:34;;;;;;;3.83;2.10;;;16.20;99.90;;;;;;5049006;27;20391;-68
2021/10/07 12:54:00;;;;;;;4.30;2.13;;;16.20;99.90;;;;;;5050676;28;20421;-68
2021/10/07 12:56:30;;;;;;;2.37;2.17;;;16.20;99.90;;;;;;5050428;28;20890;-69